createdAt,value
2019-06-15T11:34:34.294Z,67.90
2019-06-15T11:38:39.116Z,67.50
2019-06-15T11:42:30.453Z,63.70
2019-06-15T12:04:10.033Z,72.70
2019-06-15T12:06:40.714Z,72.60
2019-06-15T12:09:10.284Z,68.30
2019-06-15T12:11:40.933Z,67.80
2019-06-15T12:14:10.527Z,68.30
2019-06-15T12:16:42.952Z,67.20
2019-06-15T12:19:24.574Z,67.90
2019-06-15T12:21:57.641Z,66.50
2019-06-15T12:24:27.229Z,67.00
2019-06-15T12:26:56.786Z,66.70
2019-06-15T12:29:26.332Z,60.60
2019-06-15T12:31:55.912Z,61.60
2019-06-15T12:34:25.925Z,59.60
2019-06-15T12:36:55.489Z,61.70
2019-06-15T12:39:25.001Z,62.70
2019-06-15T12:41:55.778Z,62.90
2019-06-15T12:44:26.757Z,65.20
2019-06-15T12:46:56.341Z,67.30
2019-06-15T12:49:25.879Z,68.40
2019-06-15T12:51:58.241Z,69.60
2019-06-15T12:54:27.786Z,70.00
2019-06-15T12:57:03.490Z,69.80
2019-06-15T12:59:33.036Z,69.50
2019-06-15T13:02:02.582Z,68.70
2019-06-15T13:04:32.167Z,68.40
2019-06-15T13:07:01.712Z,68.60
2019-06-15T13:09:31.277Z,69.70
2019-06-15T13:12:00.802Z,70.80
2019-06-15T13:14:30.348Z,72.30
2019-06-15T13:17:00.254Z,75.00
2019-06-15T13:19:29.833Z,77.40
2019-06-15T13:21:59.360Z,78.30
2019-06-15T13:24:28.911Z,74.60
2019-06-15T13:26:58.445Z,77.40
2019-06-15T13:29:27.993Z,77.00
2019-06-15T13:31:57.546Z,77.80
2019-06-15T13:34:27.116Z,79.10
2019-06-15T13:36:56.645Z,80.10
2019-06-15T13:39:26.206Z,80.40
2019-06-15T13:41:55.752Z,79.50
2019-06-15T13:44:25.295Z,78.70
2019-06-15T13:46:54.826Z,77.40
2019-06-15T13:49:24.393Z,75.50
2019-06-15T13:51:55.292Z,75.30
2019-06-15T13:54:24.825Z,74.20
2019-06-15T13:56:54.370Z,75.90
2019-06-15T13:59:23.941Z,76.60
2019-06-15T14:01:53.509Z,75.40
2019-06-15T14:04:23.047Z,75.10
2019-06-15T14:06:52.611Z,76.00
2019-06-15T14:09:22.177Z,75.70
2019-06-15T14:11:51.754Z,76.00
2019-06-15T14:14:21.294Z,76.50
2019-06-15T14:16:50.840Z,76.90
2019-06-15T14:19:20.379Z,76.00
2019-06-15T14:21:49.921Z,77.70
2019-06-15T14:24:19.500Z,76.20
2019-06-15T14:26:49.023Z,74.00
2019-06-15T14:29:18.593Z,75.40
2019-06-15T14:31:50.430Z,74.40
2019-06-15T14:34:19.330Z,73.60
2019-06-15T14:36:51.168Z,74.80
2019-06-15T14:39:20.745Z,75.50
2019-06-15T14:41:51.222Z,75.10
2019-06-15T14:44:21.070Z,74.90
2019-06-15T14:46:50.633Z,75.20
2019-06-15T14:49:20.193Z,74.70
2019-06-15T14:51:51.061Z,75.50
2019-06-15T14:54:20.784Z,74.30
2019-06-15T14:56:51.422Z,74.60
2019-06-15T14:59:20.990Z,73.50
2019-06-15T15:02:06.354Z,74.30
2019-06-15T15:04:22.953Z,73.70
2019-06-15T15:06:52.473Z,72.80
2019-06-15T15:09:22.051Z,73.10
2019-06-15T15:11:52.960Z,73.70
2019-06-15T15:14:22.565Z,74.00
2019-06-15T15:16:52.084Z,72.60
2019-06-15T15:19:21.650Z,73.50
2019-06-15T15:21:51.151Z,72.80
2019-06-15T15:24:20.707Z,73.90
2019-06-15T15:26:50.261Z,73.10
2019-06-15T15:29:19.830Z,71.30
2019-06-15T15:31:49.402Z,68.40
2019-06-15T15:34:20.524Z,67.80
2019-06-15T15:36:50.060Z,67.90
2019-06-15T15:39:20.798Z,66.70
2019-06-15T15:41:50.341Z,65.20
2019-06-15T15:44:19.897Z,66.00
2019-06-15T15:46:49.440Z,65.80
2019-06-15T15:49:20.540Z,65.30
2019-06-15T15:51:51.292Z,62.50
2019-06-15T15:54:20.833Z,61.90
2019-06-15T15:56:50.402Z,62.50
2019-06-15T15:59:19.955Z,63.40
2019-06-15T16:01:49.539Z,63.90
2019-06-15T16:04:19.056Z,64.30
2019-06-15T16:06:48.616Z,64.00
2019-06-15T16:09:18.159Z,65.10
2019-06-15T16:11:49.147Z,64.20
2019-06-15T16:14:20.156Z,63.60
2019-06-15T16:16:49.719Z,63.10
2019-06-15T16:19:19.274Z,63.50
2019-06-15T16:21:48.815Z,64.60
2019-06-15T16:24:18.373Z,65.50
2019-06-15T16:26:47.920Z,65.90
2019-06-15T16:29:17.473Z,64.30
2019-06-15T16:31:47.005Z,63.40
2019-06-15T16:34:16.590Z,63.50
2019-06-15T16:36:47.078Z,63.90
2019-06-15T16:39:16.930Z,64.30
2019-06-15T16:41:46.922Z,62.50
2019-06-15T16:44:17.226Z,61.10
2019-06-15T16:46:47.024Z,60.30
2019-06-15T16:49:20.500Z,59.90
2019-06-15T16:51:47.774Z,61.80
2019-06-15T16:54:17.304Z,62.60
2019-06-15T16:56:46.872Z,63.90
2019-06-15T16:59:16.422Z,64.10
2019-06-15T17:01:46.361Z,63.00
2019-06-15T17:04:16.553Z,62.60
2019-06-15T17:06:46.290Z,63.90
2019-06-15T17:09:16.849Z,64.10
2019-06-15T17:11:47.243Z,64.30
2019-06-15T17:14:18.193Z,64.00
2019-06-15T17:17:06.768Z,64.30
2019-06-15T17:19:36.382Z,64.60
2019-06-15T17:22:16.761Z,64.70
2019-06-15T17:24:37.171Z,64.40
2019-06-15T17:27:06.692Z,64.20
2019-06-15T17:29:36.225Z,65.70
2019-06-15T17:32:06.321Z,65.80
2019-06-15T17:34:36.460Z,66.20
2019-06-15T17:37:06.823Z,66.40
2019-06-15T17:39:37.899Z,67.00
2019-06-15T17:42:07.831Z,66.40
2019-06-15T17:44:37.357Z,66.80
2019-06-15T17:49:13.964Z,67.10
2019-06-15T17:49:38.124Z,66.70
2019-06-15T17:52:07.657Z,66.70
2019-06-15T17:54:37.420Z,66.90
2019-06-15T17:57:07.031Z,65.80
2019-06-15T17:59:36.593Z,66.20
2019-06-15T18:02:06.367Z,64.60
2019-06-15T18:04:37.300Z,66.00
2019-06-15T18:07:07.010Z,67.10
2019-06-15T18:09:36.888Z,67.40
2019-06-15T18:12:06.682Z,68.30
2019-06-15T18:14:36.748Z,68.90
2019-06-15T18:17:07.243Z,69.00
2019-06-15T18:19:37.055Z,69.40
2019-06-15T18:22:07.223Z,68.80
2019-06-15T18:24:37.328Z,69.20
2019-06-15T18:27:09.498Z,68.70
2019-06-15T18:29:38.182Z,68.60
2019-06-15T18:32:07.696Z,68.10
2019-06-15T18:34:37.256Z,68.40
2019-06-15T18:37:07.709Z,68.30
2019-06-15T18:39:37.348Z,67.40
2019-06-15T18:42:07.698Z,66.80
2019-06-15T18:44:37.489Z,65.80
2019-06-15T18:47:07.252Z,65.30
2019-06-15T18:49:36.840Z,65.70
2019-06-15T18:52:06.388Z,67.10
2019-06-15T18:54:36.442Z,67.70
2019-06-15T18:57:07.462Z,67.90
2019-06-15T18:59:37.171Z,68.20
2019-06-15T19:02:06.837Z,68.40
2019-06-15T19:04:56.637Z,68.30
2019-06-15T19:07:26.961Z,68.70
2019-06-15T19:09:56.643Z,69.00
2019-06-15T19:12:26.415Z,69.30
2019-06-15T19:14:56.240Z,69.90
2019-06-15T19:17:25.827Z,70.10
2019-06-15T19:19:57.233Z,71.30
2019-06-15T19:22:27.097Z,70.50
2019-06-15T19:24:57.995Z,70.40
2019-06-15T19:27:27.542Z,70.50
2019-06-15T19:29:57.106Z,70.40
2019-06-15T19:32:26.684Z,70.70
2019-06-15T19:34:56.991Z,70.80
2019-06-15T19:37:26.629Z,70.80
2019-06-15T19:39:57.245Z,70.90
2019-06-15T19:42:26.784Z,71.10
2019-06-15T19:44:56.326Z,71.30
2019-06-15T19:47:26.548Z,71.90
2019-06-15T19:49:56.849Z,71.60
2019-06-15T19:52:26.460Z,71.40
2019-06-15T19:54:56.020Z,71.30
2019-06-15T19:57:27.160Z,71.40
2019-06-15T19:59:56.863Z,71.90
2019-06-15T20:02:26.980Z,71.80
2019-06-15T20:05:03.267Z,72.10
2019-06-15T20:07:30.707Z,72.20
2019-06-15T20:10:00.331Z,72.50
2019-06-15T20:12:29.923Z,72.50
2019-06-15T20:14:59.852Z,72.70
2019-06-15T20:17:32.540Z,72.70
2019-06-15T20:20:02.140Z,72.70
2019-06-15T20:22:31.799Z,73.20
2019-06-15T20:25:02.842Z,73.70
2019-06-15T20:27:32.454Z,74.00
2019-06-15T20:30:02.101Z,74.60
2019-06-15T20:32:33.860Z,75.70
2019-06-15T20:35:16.208Z,76.30
2019-06-15T20:37:36.944Z,76.30
2019-06-15T20:40:06.998Z,76.50
2019-06-15T20:42:36.757Z,76.70
2019-06-15T20:45:08.143Z,77.10
2019-06-15T20:47:39.052Z,77.00
2019-06-15T20:50:22.034Z,76.90
2019-06-15T20:52:40.750Z,76.70
2019-06-15T20:55:16.230Z,76.70
2019-06-15T20:57:49.926Z,77.40
2019-06-15T21:00:19.368Z,76.90
2019-06-15T21:02:50.463Z,76.70
2019-06-15T21:05:33.532Z,76.70
2019-06-15T21:07:51.266Z,77.00
2019-06-15T21:10:21.205Z,77.50
2019-06-15T21:12:50.737Z,77.90
2019-06-15T21:15:22.922Z,77.90
2019-06-15T21:17:52.482Z,77.70
2019-06-15T21:20:22.162Z,78.30
2019-06-15T21:22:51.752Z,78.30
2019-06-15T21:25:21.374Z,78.20
2019-06-15T21:27:50.932Z,78.30
2019-06-15T21:30:20.946Z,78.70
2019-06-15T21:32:50.572Z,78.40
2019-06-15T21:35:20.178Z,78.20
2019-06-15T21:37:49.717Z,78.60
2019-06-15T21:40:19.471Z,79.30
2019-06-15T21:42:49.067Z,79.20
2019-06-15T21:45:18.710Z,78.90
2019-06-15T21:47:48.289Z,78.20
2019-06-15T21:50:17.934Z,78.10
2019-06-15T21:52:47.480Z,78.10
2019-06-15T21:55:17.720Z,78.30
2019-06-15T21:57:47.267Z,78.50
2019-06-15T22:00:21.366Z,78.40
2019-06-15T22:02:50.920Z,78.20
2019-06-15T22:05:20.488Z,78.30
2019-06-15T22:07:50.024Z,78.50
2019-06-15T22:10:19.707Z,78.20
2019-06-15T22:12:49.250Z,78.80
2019-06-15T22:15:18.906Z,78.80
2019-06-15T22:17:48.449Z,79.20
2019-06-15T22:20:18.232Z,80.20
2019-06-15T22:22:47.770Z,80.40
2019-06-15T22:25:17.310Z,80.30
2019-06-15T22:27:46.946Z,80.50
2019-06-15T22:30:18.038Z,80.80
2019-06-15T22:32:47.586Z,80.50
2019-06-15T22:35:18.707Z,79.70
2019-06-15T22:37:48.261Z,79.70
2019-06-15T22:40:18.323Z,79.90
2019-06-15T22:42:47.884Z,79.50
2019-06-15T22:45:17.417Z,78.90
2019-06-15T22:47:46.967Z,78.90
2019-06-15T22:50:17.445Z,78.70
2019-06-15T22:52:47.382Z,79.00
2019-06-15T22:55:17.540Z,79.20
2019-06-15T22:57:47.088Z,78.80
2019-06-15T23:00:17.279Z,79.00
2019-06-15T23:02:46.991Z,79.00
2019-06-15T23:05:17.149Z,79.80
2019-06-15T23:07:47.376Z,80.10
2019-06-15T23:10:17.139Z,80.10
2019-06-15T23:12:46.691Z,79.50
2019-06-15T23:15:17.460Z,79.30
2019-06-15T23:17:47.160Z,79.10
2019-06-15T23:20:19.062Z,79.00
2019-06-15T23:22:48.580Z,79.20
2019-06-15T23:25:18.185Z,79.60
2019-06-15T23:27:47.692Z,80.00
2019-06-15T23:30:18.764Z,79.80
2019-06-15T23:32:48.285Z,80.00
2019-06-15T23:35:19.262Z,80.30
2019-06-15T23:37:48.782Z,80.40
2019-06-15T23:40:26.717Z,81.70
2019-06-15T23:42:56.652Z,82.20
2019-06-15T23:45:26.815Z,82.50
2019-06-15T23:47:57.439Z,83.20
2019-06-15T23:50:27.265Z,83.00
2019-06-15T23:52:56.799Z,82.70
2019-06-15T23:55:26.905Z,82.90
2019-06-15T23:57:57.055Z,83.10
